sensor_id;sensor_type;location;lat;lon;timestamp;temperature;humidity
51557;DHT22;38766;53.194;5.532;2022-10-22T00:01:08;13.40;99.90
51557;DHT22;38766;53.194;5.532;2022-10-22T00:03:34;13.40;99.90
51557;DHT22;38766;53.194;5.532;2022-10-22T00:05:59;13.30;99.90
51557;DHT22;38766;53.194;5.532;2022-10-22T00:08:25;13.30;99.90
51557;DHT22;38766;53.194;5.532;2022-10-22T00:10:51;13.30;99.90
51557;DHT22;38766;53.194;5.532;2022-10-22T00:13:26;13.30;99.90
51557;DHT22;38766;53.194;5.532;2022-10-22T00:15:51;13.30;99.90
51557;DHT22;38766;53.194;5.532;2022-10-22T00:18:20;13.30;99.90
51557;DHT22;38766;53.194;5.532;2022-10-22T00:20:45;13.20;99.90
51557;DHT22;38766;53.194;5.532;2022-10-22T00:23:11;13.20;99.90
51557;DHT22;38766;53.194;5.532;2022-10-22T00:25:37;13.20;99.90
51557;DHT22;38766;53.194;5.532;2022-10-22T00:28:03;13.20;99.90
51557;DHT22;38766;53.194;5.532;2022-10-22T00:30:29;13.20;99.90
51557;DHT22;38766;53.194;5.532;2022-10-22T00:32:54;13.20;99.90
51557;DHT22;38766;53.194;5.532;2022-10-22T00:35:20;13.20;99.90
51557;DHT22;38766;53.194;5.532;2022-10-22T00:37:45;13.10;99.90
51557;DHT22;38766;53.194;5.532;2022-10-22T00:40:11;13.10;99.90
51557;DHT22;38766;53.194;5.532;2022-10-22T00:42:37;13.20;99.90
51557;DHT22;38766;53.194;5.532;2022-10-22T00:47:40;13.20;99.90
51557;DHT22;38766;53.194;5.532;2022-10-22T00:50:14;13.10;99.90
51557;DHT22;38766;53.194;5.532;2022-10-22T00:52:40;13.10;99.90
51557;DHT22;38766;53.194;5.532;2022-10-22T00:55:06;13.10;99.90
51557;DHT22;38766;53.194;5.532;2022-10-22T00:57:33;13.10;99.90
51557;DHT22;38766;53.194;5.532;2022-10-22T01:00:00;13.00;99.90
51557;DHT22;38766;53.194;5.532;2022-10-22T01:02:26;13.00;99.90
51557;DHT22;38766;53.194;5.532;2022-10-22T01:04:52;13.00;99.90
51557;DHT22;38766;53.194;5.532;2022-10-22T01:07:20;13.00;99.90
51557;DHT22;38766;53.194;5.532;2022-10-22T01:10:13;13.00;99.90
51557;DHT22;38766;53.194;5.532;2022-10-22T01:13:21;13.10;99.90
51557;DHT22;38766;53.194;5.532;2022-10-22T01:16:03;13.10;99.90
51557;DHT22;38766;53.194;5.532;2022-10-22T01:19:04;13.10;99.90
51557;DHT22;38766;53.194;5.532;2022-10-22T01:21:41;13.10;99.90
51557;DHT22;38766;53.194;5.532;2022-10-22T01:24:11;13.10;99.90
51557;DHT22;38766;53.194;5.532;2022-10-22T01:29:28;13.10;99.90
51557;DHT22;38766;53.194;5.532;2022-10-22T01:32:06;13.10;99.90
51557;DHT22;38766;53.194;5.532;2022-10-22T01:34:33;13.10;99.90
51557;DHT22;38766;53.194;5.532;2022-10-22T01:37:00;13.20;99.90
51557;DHT22;38766;53.194;5.532;2022-10-22T01:39:28;13.20;99.90
51557;DHT22;38766;53.194;5.532;2022-10-22T01:41:55;13.20;99.90
51557;DHT22;38766;53.194;5.532;2022-10-22T01:44:27;13.20;99.90
51557;DHT22;38766;53.194;5.532;2022-10-22T01:47:36;13.30;99.90
51557;DHT22;38766;53.194;5.532;2022-10-22T01:58:21;13.40;99.90
51557;DHT22;38766;53.194;5.532;2022-10-22T02:03:53;13.50;99.90
51557;DHT22;38766;53.194;5.532;2022-10-22T02:06:22;13.50;99.90
51557;DHT22;38766;53.194;5.532;2022-10-22T02:08:49;13.60;99.90
51557;DHT22;38766;53.194;5.532;2022-10-22T02:11:16;13.60;99.90
51557;DHT22;38766;53.194;5.532;2022-10-22T02:13:44;13.60;99.90
51557;DHT22;38766;53.194;5.532;2022-10-22T02:16:17;13.60;99.90
51557;DHT22;38766;53.194;5.532;2022-10-22T02:18:45;13.60;99.90
51557;DHT22;38766;53.194;5.532;2022-10-22T02:21:14;13.70;99.90
51557;DHT22;38766;53.194;5.532;2022-10-22T02:23:40;13.70;99.90
51557;DHT22;38766;53.194;5.532;2022-10-22T02:26:19;13.70;99.90
51557;DHT22;38766;53.194;5.532;2022-10-22T02:29:04;13.70;99.90
51557;DHT22;38766;53.194;5.532;2022-10-22T02:31:33;13.70;99.90
51557;DHT22;38766;53.194;5.532;2022-10-22T02:34:04;13.70;99.90
51557;DHT22;38766;53.194;5.532;2022-10-22T02:36:32;13.70;99.90
51557;DHT22;38766;53.194;5.532;2022-10-22T02:38:59;13.70;99.90
51557;DHT22;38766;53.194;5.532;2022-10-22T02:41:25;13.70;99.90
51557;DHT22;38766;53.194;5.532;2022-10-22T02:43:55;13.70;99.90
51557;DHT22;38766;53.194;5.532;2022-10-22T02:46:21;13.70;99.90
51557;DHT22;38766;53.194;5.532;2022-10-22T02:48:47;13.70;99.90
51557;DHT22;38766;53.194;5.532;2022-10-22T02:51:13;13.70;99.90
51557;DHT22;38766;53.194;5.532;2022-10-22T02:53:38;13.70;99.90
51557;DHT22;38766;53.194;5.532;2022-10-22T02:56:04;13.70;99.90
51557;DHT22;38766;53.194;5.532;2022-10-22T02:58:30;13.70;99.90
51557;DHT22;38766;53.194;5.532;2022-10-22T03:00:56;13.70;99.90
51557;DHT22;38766;53.194;5.532;2022-10-22T03:03:21;13.70;99.90
51557;DHT22;38766;53.194;5.532;2022-10-22T03:05:48;13.70;99.90
51557;DHT22;38766;53.194;5.532;2022-10-22T03:08:14;13.60;99.90
51557;DHT22;38766;53.194;5.532;2022-10-22T03:10:39;13.70;99.90
51557;DHT22;38766;53.194;5.532;2022-10-22T03:13:05;13.70;99.90
51557;DHT22;38766;53.194;5.532;2022-10-22T03:15:31;13.70;99.90
51557;DHT22;38766;53.194;5.532;2022-10-22T03:17:56;13.60;99.90
51557;DHT22;38766;53.194;5.532;2022-10-22T03:20:22;13.60;99.90
51557;DHT22;38766;53.194;5.532;2022-10-22T03:22:47;13.70;99.90
51557;DHT22;38766;53.194;5.532;2022-10-22T03:25:17;13.70;99.90
51557;DHT22;38766;53.194;5.532;2022-10-22T03:27:43;13.70;99.90
51557;DHT22;38766;53.194;5.532;2022-10-22T03:30:10;13.60;99.90
51557;DHT22;38766;53.194;5.532;2022-10-22T03:32:36;13.70;99.90
51557;DHT22;38766;53.194;5.532;2022-10-22T03:35:01;13.70;99.90
51557;DHT22;38766;53.194;5.532;2022-10-22T03:37:27;13.60;99.90
51557;DHT22;38766;53.194;5.532;2022-10-22T03:39:54;13.70;99.90
51557;DHT22;38766;53.194;5.532;2022-10-22T03:42:20;13.60;99.90
51557;DHT22;38766;53.194;5.532;2022-10-22T03:44:46;13.60;99.90
51557;DHT22;38766;53.194;5.532;2022-10-22T03:47:12;13.60;99.90
51557;DHT22;38766;53.194;5.532;2022-10-22T03:49:38;13.70;99.90
51557;DHT22;38766;53.194;5.532;2022-10-22T03:52:05;13.60;99.90
51557;DHT22;38766;53.194;5.532;2022-10-22T03:54:31;13.60;99.90
51557;DHT22;38766;53.194;5.532;2022-10-22T03:56:57;13.60;99.90
51557;DHT22;38766;53.194;5.532;2022-10-22T03:59:22;13.50;99.90
51557;DHT22;38766;53.194;5.532;2022-10-22T04:01:48;13.50;99.90
51557;DHT22;38766;53.194;5.532;2022-10-22T04:04:13;13.60;99.90
51557;DHT22;38766;53.194;5.532;2022-10-22T04:06:39;13.60;99.90
51557;DHT22;38766;53.194;5.532;2022-10-22T04:09:05;13.60;99.90
51557;DHT22;38766;53.194;5.532;2022-10-22T04:11:30;13.50;99.90
51557;DHT22;38766;53.194;5.532;2022-10-22T04:13:56;13.60;99.90
51557;DHT22;38766;53.194;5.532;2022-10-22T04:16:22;13.50;99.90
51557;DHT22;38766;53.194;5.532;2022-10-22T04:18:48;13.60;99.90
51557;DHT22;38766;53.194;5.532;2022-10-22T04:21:16;13.50;99.90
51557;DHT22;38766;53.194;5.532;2022-10-22T04:23:46;13.60;99.90
51557;DHT22;38766;53.194;5.532;2022-10-22T04:26:12;13.60;99.90
51557;DHT22;38766;53.194;5.532;2022-10-22T04:28:38;13.60;99.90
51557;DHT22;38766;53.194;5.532;2022-10-22T04:31:12;13.60;99.90
51557;DHT22;38766;53.194;5.532;2022-10-22T04:33:38;13.60;99.90
51557;DHT22;38766;53.194;5.532;2022-10-22T04:36:16;13.50;99.90
51557;DHT22;38766;53.194;5.532;2022-10-22T04:38:43;13.60;99.90
51557;DHT22;38766;53.194;5.532;2022-10-22T04:41:13;13.60;99.90
51557;DHT22;38766;53.194;5.532;2022-10-22T04:43:40;13.60;99.90
51557;DHT22;38766;53.194;5.532;2022-10-22T04:46:06;13.50;99.90
51557;DHT22;38766;53.194;5.532;2022-10-22T04:48:34;13.60;99.90
51557;DHT22;38766;53.194;5.532;2022-10-22T04:51:00;13.60;99.90
51557;DHT22;38766;53.194;5.532;2022-10-22T04:53:26;13.60;99.90
51557;DHT22;38766;53.194;5.532;2022-10-22T04:55:52;13.60;99.90
51557;DHT22;38766;53.194;5.532;2022-10-22T04:58:18;13.60;99.90
51557;DHT22;38766;53.194;5.532;2022-10-22T05:00:43;13.60;99.90
51557;DHT22;38766;53.194;5.532;2022-10-22T05:03:09;13.60;99.90
51557;DHT22;38766;53.194;5.532;2022-10-22T05:05:34;13.60;99.90
51557;DHT22;38766;53.194;5.532;2022-10-22T05:08:00;13.60;99.90
51557;DHT22;38766;53.194;5.532;2022-10-22T05:10:26;13.60;99.90
51557;DHT22;38766;53.194;5.532;2022-10-22T05:12:52;13.60;99.90
51557;DHT22;38766;53.194;5.532;2022-10-22T05:15:18;13.60;99.90
51557;DHT22;38766;53.194;5.532;2022-10-22T05:17:43;13.60;99.90
51557;DHT22;38766;53.194;5.532;2022-10-22T05:20:09;13.70;99.90
51557;DHT22;38766;53.194;5.532;2022-10-22T05:22:35;13.70;99.90
51557;DHT22;38766;53.194;5.532;2022-10-22T05:25:00;13.70;99.90
51557;DHT22;38766;53.194;5.532;2022-10-22T05:27:26;13.70;99.90
51557;DHT22;38766;53.194;5.532;2022-10-22T05:29:52;13.70;99.90
51557;DHT22;38766;53.194;5.532;2022-10-22T05:32:17;13.60;99.90
51557;DHT22;38766;53.194;5.532;2022-10-22T05:34:43;13.70;99.90
51557;DHT22;38766;53.194;5.532;2022-10-22T05:37:08;13.70;99.90
51557;DHT22;38766;53.194;5.532;2022-10-22T05:39:34;13.70;99.90
51557;DHT22;38766;53.194;5.532;2022-10-22T05:42:02;13.70;99.90
51557;DHT22;38766;53.194;5.532;2022-10-22T05:44:27;13.70;99.90
51557;DHT22;38766;53.194;5.532;2022-10-22T05:46:53;13.60;99.90
51557;DHT22;38766;53.194;5.532;2022-10-22T05:49:19;13.70;99.90
51557;DHT22;38766;53.194;5.532;2022-10-22T05:51:45;13.80;99.90
51557;DHT22;38766;53.194;5.532;2022-10-22T05:54:18;13.70;99.90
51557;DHT22;38766;53.194;5.532;2022-10-22T05:56:44;13.70;99.90
51557;DHT22;38766;53.194;5.532;2022-10-22T05:59:10;13.90;99.90
51557;DHT22;38766;53.194;5.532;2022-10-22T06:01:39;13.70;99.90
51557;DHT22;38766;53.194;5.532;2022-10-22T06:04:06;13.70;99.90
51557;DHT22;38766;53.194;5.532;2022-10-22T06:06:42;13.80;99.90
51557;DHT22;38766;53.194;5.532;2022-10-22T06:09:24;13.70;99.90
51557;DHT22;38766;53.194;5.532;2022-10-22T06:11:50;13.70;99.90
51557;DHT22;38766;53.194;5.532;2022-10-22T06:14:17;13.70;99.90
51557;DHT22;38766;53.194;5.532;2022-10-22T06:16:43;13.60;99.90
51557;DHT22;38766;53.194;5.532;2022-10-22T06:19:11;13.70;99.90
51557;DHT22;38766;53.194;5.532;2022-10-22T06:21:37;13.70;99.90
51557;DHT22;38766;53.194;5.532;2022-10-22T06:24:03;13.70;99.90
51557;DHT22;38766;53.194;5.532;2022-10-22T06:26:29;13.70;99.90
51557;DHT22;38766;53.194;5.532;2022-10-22T06:28:56;13.70;99.90
51557;DHT22;38766;53.194;5.532;2022-10-22T06:31:23;13.60;99.90
51557;DHT22;38766;53.194;5.532;2022-10-22T06:33:49;13.70;99.90
51557;DHT22;38766;53.194;5.532;2022-10-22T06:36:18;13.70;99.90
51557;DHT22;38766;53.194;5.532;2022-10-22T06:38:44;13.60;99.90
51557;DHT22;38766;53.194;5.532;2022-10-22T06:41:12;13.60;99.90
51557;DHT22;38766;53.194;5.532;2022-10-22T06:44:02;13.60;99.90
51557;DHT22;38766;53.194;5.532;2022-10-22T06:46:37;13.60;99.90
51557;DHT22;38766;53.194;5.532;2022-10-22T06:49:02;13.60;99.90
51557;DHT22;38766;53.194;5.532;2022-10-22T06:51:30;13.60;99.90
51557;DHT22;38766;53.194;5.532;2022-10-22T06:53:56;13.50;99.90
51557;DHT22;38766;53.194;5.532;2022-10-22T06:56:25;13.50;99.90
51557;DHT22;38766;53.194;5.532;2022-10-22T06:58:53;13.50;99.90
51557;DHT22;38766;53.194;5.532;2022-10-22T07:01:23;13.60;99.90
51557;DHT22;38766;53.194;5.532;2022-10-22T07:03:49;13.50;99.90
51557;DHT22;38766;53.194;5.532;2022-10-22T07:06:16;13.60;99.90
51557;DHT22;38766;53.194;5.532;2022-10-22T07:08:42;13.60;99.90
51557;DHT22;38766;53.194;5.532;2022-10-22T07:11:10;13.60;99.90
51557;DHT22;38766;53.194;5.532;2022-10-22T07:13:37;13.60;99.90
51557;DHT22;38766;53.194;5.532;2022-10-22T07:16:03;13.60;99.90
51557;DHT22;38766;53.194;5.532;2022-10-22T07:18:29;13.60;99.90
51557;DHT22;38766;53.194;5.532;2022-10-22T07:20:55;13.60;99.90
51557;DHT22;38766;53.194;5.532;2022-10-22T07:23:20;13.60;99.90
51557;DHT22;38766;53.194;5.532;2022-10-22T07:25:46;13.70;99.90
51557;DHT22;38766;53.194;5.532;2022-10-22T07:28:14;13.60;99.90
51557;DHT22;38766;53.194;5.532;2022-10-22T07:30:40;13.70;99.90
51557;DHT22;38766;53.194;5.532;2022-10-22T07:33:08;13.70;99.90
51557;DHT22;38766;53.194;5.532;2022-10-22T07:35:36;13.70;99.90
51557;DHT22;38766;53.194;5.532;2022-10-22T07:38:02;13.70;99.90
51557;DHT22;38766;53.194;5.532;2022-10-22T07:40:31;13.80;99.90
51557;DHT22;38766;53.194;5.532;2022-10-22T07:42:56;13.80;99.90
51557;DHT22;38766;53.194;5.532;2022-10-22T07:45:22;13.90;99.90
51557;DHT22;38766;53.194;5.532;2022-10-22T07:47:54;13.90;99.90
51557;DHT22;38766;53.194;5.532;2022-10-22T07:50:20;14.00;99.90
51557;DHT22;38766;53.194;5.532;2022-10-22T07:52:45;14.00;99.90
51557;DHT22;38766;53.194;5.532;2022-10-22T07:55:11;14.00;99.90
51557;DHT22;38766;53.194;5.532;2022-10-22T07:57:38;14.10;99.90
51557;DHT22;38766;53.194;5.532;2022-10-22T08:00:08;14.10;99.90
51557;DHT22;38766;53.194;5.532;2022-10-22T08:02:34;14.10;99.90
51557;DHT22;38766;53.194;5.532;2022-10-22T08:04:59;14.20;99.90
51557;DHT22;38766;53.194;5.532;2022-10-22T08:07:25;14.20;99.90
51557;DHT22;38766;53.194;5.532;2022-10-22T08:09:51;14.30;99.90
51557;DHT22;38766;53.194;5.532;2022-10-22T08:12:17;14.40;99.90
51557;DHT22;38766;53.194;5.532;2022-10-22T08:14:42;14.50;99.90
51557;DHT22;38766;53.194;5.532;2022-10-22T08:17:08;14.50;99.90
51557;DHT22;38766;53.194;5.532;2022-10-22T08:19:34;14.60;99.90
51557;DHT22;38766;53.194;5.532;2022-10-22T08:22:00;14.70;99.90
51557;DHT22;38766;53.194;5.532;2022-10-22T08:24:26;14.80;99.90
51557;DHT22;38766;53.194;5.532;2022-10-22T08:26:53;14.80;99.90
51557;DHT22;38766;53.194;5.532;2022-10-22T08:29:23;14.90;99.90
51557;DHT22;38766;53.194;5.532;2022-10-22T08:31:51;14.90;99.90
51557;DHT22;38766;53.194;5.532;2022-10-22T08:34:17;14.90;99.90
51557;DHT22;38766;53.194;5.532;2022-10-22T08:36:42;14.90;99.90
51557;DHT22;38766;53.194;5.532;2022-10-22T08:39:08;15.00;99.90
51557;DHT22;38766;53.194;5.532;2022-10-22T08:41:57;14.90;99.90
51557;DHT22;38766;53.194;5.532;2022-10-22T08:44:45;14.90;99.90
51557;DHT22;38766;53.194;5.532;2022-10-22T08:47:29;15.00;99.90
51557;DHT22;38766;53.194;5.532;2022-10-22T08:50:01;15.00;99.90
51557;DHT22;38766;53.194;5.532;2022-10-22T08:52:26;15.00;99.90
51557;DHT22;38766;53.194;5.532;2022-10-22T08:54:57;14.90;99.90
51557;DHT22;38766;53.194;5.532;2022-10-22T08:57:48;15.00;99.90
51557;DHT22;38766;53.194;5.532;2022-10-22T09:00:23;15.00;99.90
51557;DHT22;38766;53.194;5.532;2022-10-22T09:03:14;15.10;99.90
51557;DHT22;38766;53.194;5.532;2022-10-22T09:08:23;15.20;99.90
51557;DHT22;38766;53.194;5.532;2022-10-22T09:10:53;15.40;99.90
51557;DHT22;38766;53.194;5.532;2022-10-22T09:13:22;15.50;99.90
51557;DHT22;38766;53.194;5.532;2022-10-22T09:15:54;15.50;99.90
51557;DHT22;38766;53.194;5.532;2022-10-22T09:18:32;15.50;99.90
51557;DHT22;38766;53.194;5.532;2022-10-22T09:23:46;15.40;99.90
51557;DHT22;38766;53.194;5.532;2022-10-22T09:26:16;15.40;99.90
51557;DHT22;38766;53.194;5.532;2022-10-22T09:28:42;15.50;99.90
51557;DHT22;38766;53.194;5.532;2022-10-22T09:31:12;15.40;99.90
51557;DHT22;38766;53.194;5.532;2022-10-22T09:33:44;15.50;99.90
51557;DHT22;38766;53.194;5.532;2022-10-22T09:36:15;15.50;99.90
51557;DHT22;38766;53.194;5.532;2022-10-22T09:38:51;15.50;99.90
51557;DHT22;38766;53.194;5.532;2022-10-22T09:41:19;15.50;99.90
51557;DHT22;38766;53.194;5.532;2022-10-22T09:43:48;15.50;99.90
51557;DHT22;38766;53.194;5.532;2022-10-22T09:46:21;15.60;99.90
51557;DHT22;38766;53.194;5.532;2022-10-22T09:49:10;15.80;99.90
51557;DHT22;38766;53.194;5.532;2022-10-22T09:51:56;16.00;99.90
51557;DHT22;38766;53.194;5.532;2022-10-22T09:54:25;16.10;99.90
51557;DHT22;38766;53.194;5.532;2022-10-22T09:56:56;16.00;99.90
51557;DHT22;38766;53.194;5.532;2022-10-22T09:59:29;16.00;99.90
51557;DHT22;38766;53.194;5.532;2022-10-22T10:02:02;15.90;99.90
51557;DHT22;38766;53.194;5.532;2022-10-22T10:04:33;15.90;99.90
51557;DHT22;38766;53.194;5.532;2022-10-22T10:07:00;16.00;99.90
51557;DHT22;38766;53.194;5.532;2022-10-22T10:09:28;15.90;99.90
51557;DHT22;38766;53.194;5.532;2022-10-22T10:12:12;16.00;99.90
51557;DHT22;38766;53.194;5.532;2022-10-22T10:17:50;16.00;99.90
51557;DHT22;38766;53.194;5.532;2022-10-22T10:20:21;15.90;99.90
51557;DHT22;38766;53.194;5.532;2022-10-22T10:23:20;15.90;99.90
51557;DHT22;38766;53.194;5.532;2022-10-22T10:26:06;15.80;99.90
51557;DHT22;38766;53.194;5.532;2022-10-22T10:40:10;15.50;99.90
51557;DHT22;38766;53.194;5.532;2022-10-22T10:42:42;15.50;99.90
51557;DHT22;38766;53.194;5.532;2022-10-22T10:45:16;15.40;99.90
51557;DHT22;38766;53.194;5.532;2022-10-22T10:53:54;15.30;99.90
51557;DHT22;38766;53.194;5.532;2022-10-22T10:56:47;15.30;99.90
51557;DHT22;38766;53.194;5.532;2022-10-22T10:59:37;15.40;99.90
51557;DHT22;38766;53.194;5.532;2022-10-22T11:07:23;15.70;99.90
51557;DHT22;38766;53.194;5.532;2022-10-22T11:10:08;15.70;99.90
51557;DHT22;38766;53.194;5.532;2022-10-22T11:12:40;15.60;99.90
51557;DHT22;38766;53.194;5.532;2022-10-22T11:17:50;15.60;99.90
51557;DHT22;38766;53.194;5.532;2022-10-22T11:20:31;15.60;99.90
51557;DHT22;38766;53.194;5.532;2022-10-22T11:23:08;15.50;99.90
51557;DHT22;38766;53.194;5.532;2022-10-22T11:25:47;15.50;99.90
51557;DHT22;38766;53.194;5.532;2022-10-22T11:28:18;15.50;99.90
51557;DHT22;38766;53.194;5.532;2022-10-22T11:30:48;15.50;99.90
51557;DHT22;38766;53.194;5.532;2022-10-22T11:33:19;15.50;99.90
51557;DHT22;38766;53.194;5.532;2022-10-22T11:35:46;15.50;99.90
51557;DHT22;38766;53.194;5.532;2022-10-22T11:38:19;15.50;99.90
51557;DHT22;38766;53.194;5.532;2022-10-22T11:40:55;15.50;99.90
51557;DHT22;38766;53.194;5.532;2022-10-22T11:43:25;15.60;99.90
51557;DHT22;38766;53.194;5.532;2022-10-22T11:46:00;15.60;99.90
51557;DHT22;38766;53.194;5.532;2022-10-22T11:48:28;15.60;99.90
51557;DHT22;38766;53.194;5.532;2022-10-22T11:51:00;15.70;99.90
51557;DHT22;38766;53.194;5.532;2022-10-22T11:53:37;15.80;99.90
51557;DHT22;38766;53.194;5.532;2022-10-22T12:08:43;16.10;99.90
51557;DHT22;38766;53.194;5.532;2022-10-22T12:16:50;16.20;99.90
51557;DHT22;38766;53.194;5.532;2022-10-22T12:22:17;16.20;99.90
51557;DHT22;38766;53.194;5.532;2022-10-22T12:24:49;16.20;99.90
51557;DHT22;38766;53.194;5.532;2022-10-22T12:27:24;16.30;99.90
51557;DHT22;38766;53.194;5.532;2022-10-22T12:29:55;16.30;99.90
51557;DHT22;38766;53.194;5.532;2022-10-22T12:32:21;16.40;99.90
51557;DHT22;38766;53.194;5.532;2022-10-22T12:34:50;16.40;99.90
51557;DHT22;38766;53.194;5.532;2022-10-22T12:37:16;16.40;99.90
51557;DHT22;38766;53.194;5.532;2022-10-22T12:39:43;16.50;99.90
51557;DHT22;38766;53.194;5.532;2022-10-22T12:42:16;16.50;99.90
51557;DHT22;38766;53.194;5.532;2022-10-22T12:44:45;16.70;99.90
51557;DHT22;38766;53.194;5.532;2022-10-22T12:47:15;16.80;99.90
51557;DHT22;38766;53.194;5.532;2022-10-22T12:49:45;16.80;99.90
51557;DHT22;38766;53.194;5.532;2022-10-22T12:52:16;16.80;99.90
51557;DHT22;38766;53.194;5.532;2022-10-22T12:54:44;16.70;99.90
51557;DHT22;38766;53.194;5.532;2022-10-22T12:57:13;16.90;99.90
51557;DHT22;38766;53.194;5.532;2022-10-22T12:59:42;16.80;99.90
51557;DHT22;38766;53.194;5.532;2022-10-22T13:02:24;16.80;99.90
51557;DHT22;38766;53.194;5.532;2022-10-22T13:07:38;16.80;99.90
51557;DHT22;38766;53.194;5.532;2022-10-22T13:10:18;16.90;99.90
51557;DHT22;38766;53.194;5.532;2022-10-22T13:12:49;16.90;99.90
51557;DHT22;38766;53.194;5.532;2022-10-22T13:17:46;17.00;99.90
51557;DHT22;38766;53.194;5.532;2022-10-22T13:20:20;17.10;99.90
51557;DHT22;38766;53.194;5.532;2022-10-22T13:23:00;17.10;99.90
51557;DHT22;38766;53.194;5.532;2022-10-22T13:25:32;17.10;99.90
51557;DHT22;38766;53.194;5.532;2022-10-22T13:28:02;17.20;99.90
51557;DHT22;38766;53.194;5.532;2022-10-22T13:30:36;17.30;99.90
51557;DHT22;38766;53.194;5.532;2022-10-22T13:33:04;17.40;99.90
51557;DHT22;38766;53.194;5.532;2022-10-22T13:35:33;17.50;99.90
51557;DHT22;38766;53.194;5.532;2022-10-22T13:38:00;17.50;99.90
51557;DHT22;38766;53.194;5.532;2022-10-22T13:40:26;17.50;99.90
51557;DHT22;38766;53.194;5.532;2022-10-22T13:42:52;17.50;99.90
51557;DHT22;38766;53.194;5.532;2022-10-22T13:45:18;17.60;99.90
51557;DHT22;38766;53.194;5.532;2022-10-22T13:47:48;17.50;99.90
51557;DHT22;38766;53.194;5.532;2022-10-22T13:50:16;17.60;99.90
51557;DHT22;38766;53.194;5.532;2022-10-22T13:55:15;17.50;99.90
51557;DHT22;38766;53.194;5.532;2022-10-22T13:57:41;17.50;99.90
51557;DHT22;38766;53.194;5.532;2022-10-22T14:00:15;17.50;99.90
51557;DHT22;38766;53.194;5.532;2022-10-22T14:02:42;17.50;99.90
51557;DHT22;38766;53.194;5.532;2022-10-22T14:05:09;17.50;99.90
51557;DHT22;38766;53.194;5.532;2022-10-22T14:07:36;17.40;99.90
51557;DHT22;38766;53.194;5.532;2022-10-22T14:10:05;17.40;99.90
51557;DHT22;38766;53.194;5.532;2022-10-22T14:12:31;17.40;99.90
51557;DHT22;38766;53.194;5.532;2022-10-22T14:14:56;17.30;99.90
51557;DHT22;38766;53.194;5.532;2022-10-22T14:17:22;17.20;99.90
51557;DHT22;38766;53.194;5.532;2022-10-22T14:19:48;17.10;99.90
51557;DHT22;38766;53.194;5.532;2022-10-22T14:22:18;17.20;99.90
51557;DHT22;38766;53.194;5.532;2022-10-22T14:24:45;17.10;99.90
51557;DHT22;38766;53.194;5.532;2022-10-22T14:27:12;17.00;99.90
51557;DHT22;38766;53.194;5.532;2022-10-22T14:29:39;17.00;99.90
51557;DHT22;38766;53.194;5.532;2022-10-22T14:32:16;16.90;99.90
51557;DHT22;38766;53.194;5.532;2022-10-22T14:34:43;16.90;99.90
51557;DHT22;38766;53.194;5.532;2022-10-22T14:37:18;16.90;99.90
51557;DHT22;38766;53.194;5.532;2022-10-22T14:39:45;16.90;99.90
51557;DHT22;38766;53.194;5.532;2022-10-22T14:42:16;16.80;99.90
51557;DHT22;38766;53.194;5.532;2022-10-22T14:44:42;16.90;99.90
51557;DHT22;38766;53.194;5.532;2022-10-22T14:47:07;16.70;99.90
51557;DHT22;38766;53.194;5.532;2022-10-22T14:49:33;16.70;99.90
51557;DHT22;38766;53.194;5.532;2022-10-22T14:51:59;16.70;99.90
51557;DHT22;38766;53.194;5.532;2022-10-22T14:54:24;16.60;99.90
51557;DHT22;38766;53.194;5.532;2022-10-22T14:56:50;16.60;99.90
51557;DHT22;38766;53.194;5.532;2022-10-22T14:59:16;16.50;99.90
51557;DHT22;38766;53.194;5.532;2022-10-22T15:01:41;16.40;99.90
51557;DHT22;38766;53.194;5.532;2022-10-22T15:04:07;16.30;99.90
51557;DHT22;38766;53.194;5.532;2022-10-22T15:06:33;16.30;99.90
51557;DHT22;38766;53.194;5.532;2022-10-22T15:08:59;16.20;99.90
51557;DHT22;38766;53.194;5.532;2022-10-22T15:11:24;16.20;99.90
51557;DHT22;38766;53.194;5.532;2022-10-22T15:13:51;16.10;99.90
51557;DHT22;38766;53.194;5.532;2022-10-22T15:16:17;16.10;99.90
51557;DHT22;38766;53.194;5.532;2022-10-22T15:18:43;16.10;99.90
51557;DHT22;38766;53.194;5.532;2022-10-22T15:21:15;16.00;99.90
51557;DHT22;38766;53.194;5.532;2022-10-22T15:23:41;16.00;99.90
51557;DHT22;38766;53.194;5.532;2022-10-22T15:26:08;16.00;99.90
51557;DHT22;38766;53.194;5.532;2022-10-22T15:28:35;16.00;99.90
51557;DHT22;38766;53.194;5.532;2022-10-22T15:31:01;15.90;99.90
51557;DHT22;38766;53.194;5.532;2022-10-22T15:33:28;15.90;99.90
51557;DHT22;38766;53.194;5.532;2022-10-22T15:35:55;15.90;99.90
51557;DHT22;38766;53.194;5.532;2022-10-22T15:38:22;15.80;99.90
51557;DHT22;38766;53.194;5.532;2022-10-22T15:41:02;15.70;99.90
51557;DHT22;38766;53.194;5.532;2022-10-22T15:43:28;15.70;99.90
51557;DHT22;38766;53.194;5.532;2022-10-22T15:46:15;15.60;99.90
51557;DHT22;38766;53.194;5.532;2022-10-22T15:48:41;15.60;99.90
51557;DHT22;38766;53.194;5.532;2022-10-22T15:51:09;15.50;99.90
51557;DHT22;38766;53.194;5.532;2022-10-22T15:53:35;15.50;99.90
51557;DHT22;38766;53.194;5.532;2022-10-22T15:56:01;15.50;99.90
51557;DHT22;38766;53.194;5.532;2022-10-22T15:58:26;15.50;99.90
51557;DHT22;38766;53.194;5.532;2022-10-22T16:00:52;15.50;99.90
51557;DHT22;38766;53.194;5.532;2022-10-22T16:03:17;15.40;99.90
51557;DHT22;38766;53.194;5.532;2022-10-22T16:05:52;15.40;99.90
51557;DHT22;38766;53.194;5.532;2022-10-22T16:08:19;15.30;99.90
51557;DHT22;38766;53.194;5.532;2022-10-22T16:10:46;15.30;99.90
51557;DHT22;38766;53.194;5.532;2022-10-22T16:13:13;15.30;99.90
51557;DHT22;38766;53.194;5.532;2022-10-22T16:15:39;15.20;99.90
51557;DHT22;38766;53.194;5.532;2022-10-22T16:18:05;15.20;99.90
51557;DHT22;38766;53.194;5.532;2022-10-22T16:20:30;15.10;99.90
51557;DHT22;38766;53.194;5.532;2022-10-22T16:22:56;15.10;99.90
51557;DHT22;38766;53.194;5.532;2022-10-22T16:25:22;15.10;99.90
51557;DHT22;38766;53.194;5.532;2022-10-22T16:27:49;15.10;99.90
51557;DHT22;38766;53.194;5.532;2022-10-22T16:30:15;15.00;99.90
51557;DHT22;38766;53.194;5.532;2022-10-22T16:32:41;15.00;99.90
51557;DHT22;38766;53.194;5.532;2022-10-22T16:35:07;14.90;99.90
51557;DHT22;38766;53.194;5.532;2022-10-22T16:37:33;14.90;99.90
51557;DHT22;38766;53.194;5.532;2022-10-22T16:39:58;14.90;99.90
51557;DHT22;38766;53.194;5.532;2022-10-22T16:42:24;14.90;99.90
51557;DHT22;38766;53.194;5.532;2022-10-22T16:44:50;14.80;99.90
51557;DHT22;38766;53.194;5.532;2022-10-22T16:47:15;14.80;99.90
51557;DHT22;38766;53.194;5.532;2022-10-22T16:49:41;14.80;99.90
51557;DHT22;38766;53.194;5.532;2022-10-22T16:52:07;14.90;99.90
51557;DHT22;38766;53.194;5.532;2022-10-22T16:54:32;14.70;99.90
51557;DHT22;38766;53.194;5.532;2022-10-22T16:56:58;14.70;99.90
51557;DHT22;38766;53.194;5.532;2022-10-22T16:59:24;14.70;99.90
51557;DHT22;38766;53.194;5.532;2022-10-22T17:01:49;14.60;99.90